Observation data for Morton on 02/21/2019      Previous  Date  Next       Current Mesonet Observations  Soil Data  Daily Summary Page  Observations in Plain Language
KMNS 210600Z 18008KT 03/M14 A2981 RMK A01 T00271143  RH  027%=      5-min Rain = 0
KMNS 210605Z 18008KT 03/M14 A2981 RMK A01 T00281141  RH  027%=      5-min Rain = 0
KMNS 210610Z 18009KT 03/M14 A2981 RMK A01 T00281140  RH  027%=      5-min Rain = 0
KMNS 210615Z 17009KT 03/M14 A2981 RMK A01 T00291139  RH  028%=      5-min Rain = 0
KMNS 210620Z 17009KT 03/M14 A298 RMK A01 T00281140  RH  028%=      5-min Rain = 0
KMNS 210625Z 17009KT 03/M14 A298 RMK A01 T00261138  RH  028%=      5-min Rain = 0
KMNS 210630Z 18010KT 03/M14 A298 RMK A01 T00281135  RH  029%=      5-min Rain = 0
KMNS 210635Z 17009KT 03/M14 A298 RMK A01 T00271135  RH  029%=      5-min Rain = 0
KMNS 210640Z 17009KT 03/M14 A298 RMK A01 T00261135  RH  029%=      5-min Rain = 0
KMNS 210645Z 17008KT 03/M13 A298 RMK A01 T00251134  RH  030%=      5-min Rain = 0
KMNS 210650Z 17007KT 02/M13 A298 RMK A01 T00241132  RH  030%=      5-min Rain = 0
KMNS 210655Z 17007KT 03/M13 A298 RMK A01 T00251130  RH  031%=      5-min Rain = 0
KMNS 210700Z 17008KT 03/M13 A298 RMK A01 T00281126  RH  031%=      5-min Rain = 0
KMNS 210705Z 17008KT 03/M12 A298 RMK A01 T00341124  RH  030%=      5-min Rain = 0
KMNS 210710Z 17008KT 04/M12 A298 RMK A01 T00371122  RH  030%=      5-min Rain = 0
KMNS 210715Z 17009KT 04/M12 A298 RMK A01 T00401120  RH  030%=      5-min Rain = 0
KMNS 210720Z 17009KT 04/M12 A298 RMK A01 T00411118  RH  030%=      5-min Rain = 0
KMNS 210725Z 17009KT 04/M12 A2981 RMK A01 T00401118  RH  030%=      5-min Rain = 0
KMNS 210730Z 17010KT 04/M12 A2981 RMK A01 T00401117  RH  031%=      5-min Rain = 0
KMNS 210735Z 17011KT 04/M12 A2981 RMK A01 T00411116  RH  031%=      5-min Rain = 0
KMNS 210740Z 17010KT 04/M11 A2981 RMK A01 T00401114  RH  031%=      5-min Rain = 0
KMNS 210745Z 17010KT 04/M11 A2981 RMK A01 T00401113  RH  032%=      5-min Rain = 0
KMNS 210750Z 18009KT 04/M11 A298 RMK A01 T00391113  RH  032%=      5-min Rain = 0
KMNS 210755Z 18008KT 04/M11 A2981 RMK A01 T00391112  RH  032%=      5-min Rain = 0
KMNS 210800Z 18008KT 04/M11 A2981 RMK A01 T00381111  RH  033%=      5-min Rain = 0
KMNS 210805Z 18008KT 04/M11 A2981 RMK A01 T00381109  RH  033%=      5-min Rain = 0
KMNS 210810Z 18008KT 04/M11 A2981 RMK A01 T00371109  RH  033%=      5-min Rain = 0
KMNS 210815Z 17007KT 04/M11 A2981 RMK A01 T00361108  RH  034%=      5-min Rain = 0
KMNS 210820Z 17007KT 04/M11 A2981 RMK A01 T00351108  RH  034%=      5-min Rain = 0
KMNS 210825Z 17008KT 03/M11 A2981 RMK A01 T00341107  RH  035%=      5-min Rain = 0
KMNS 210830Z 17008KT 03/M11 A298 RMK A01 T00331106  RH  035%=      5-min Rain = 0
KMNS 210835Z 18008KT 03/M10 A298 RMK A01 T00331104  RH  036%=      5-min Rain = 0
KMNS 210840Z 17008KT 03/M10 A298 RMK A01 T00331103  RH  036%=      5-min Rain = 0
KMNS 210845Z 17008KT 03/M10 A298 RMK A01 T00341101  RH  036%=      5-min Rain = 0
KMNS 210850Z 18007KT 03/M10 A298 RMK A01 T00341099  RH  037%=      5-min Rain = 0
KMNS 210855Z 18008KT 04/M10 A298 RMK A01 T00351097  RH  037%=      5-min Rain = 0
KMNS 210900Z 18008KT 04/M10 A298 RMK A01 T00351095  RH  038%=      5-min Rain = 0
KMNS 210905Z 18008KT 04/M09 A298 RMK A01 T00361091  RH  039%=      5-min Rain = 0
KMNS 210910Z 18010KT 04/M09 A298 RMK A01 T00381087  RH  039%=      5-min Rain = 0
KMNS 210915Z 18010KT 04/M08 A298 RMK A01 T00401084  RH  040%=      5-min Rain = 0
KMNS 210920Z 18010KT 04/M08 A298 RMK A01 T00411081  RH  040%=      5-min Rain = 0
KMNS 210925Z 18010KT 04/M08 A298 RMK A01 T00421079  RH  041%=      5-min Rain = 0
KMNS 210930Z 18009KT 04/M08 A298 RMK A01 T00421077  RH  042%=      5-min Rain = 0
KMNS 210935Z 19011KT 05/M07 A298 RMK A01 T00451072  RH  042%=      5-min Rain = 0
KMNS 210940Z 19011KT 05/M07 A298 RMK A01 T00461071  RH  043%=      5-min Rain = 0
KMNS 210945Z 18011KT 05/M07 A298 RMK A01 T00461069  RH  043%=      5-min Rain = 0
KMNS 210950Z 19010KT 05/M07 A298 RMK A01 T00461068  RH  043%=      5-min Rain = 0
KMNS 210955Z 19009KT 05/M07 A298 RMK A01 T00461066  RH  044%=      5-min Rain = 0
KMNS 211000Z 19009KT 05/M06 A298 RMK A01 T00471063  RH  045%=      5-min Rain = 0
KMNS 211005Z 19009KT 05/M06 A298 RMK A01 T00481060  RH  046%=      5-min Rain = 0
KMNS 211010Z 19009KT 05/M06 A298 RMK A01 T00491057  RH  046%=      5-min Rain = 0
KMNS 211015Z 18009KT 05/M05 A298 RMK A01 T00501054  RH  047%=      5-min Rain = 0
KMNS 211020Z 18010KT 05/M05 A298 RMK A01 T00511052  RH  048%=      5-min Rain = 0
KMNS 211025Z 18009KT 05/M05 A298 RMK A01 T00511050  RH  048%=      5-min Rain = 0
KMNS 211030Z 18009KT 05/M05 A298 RMK A01 T00521047  RH  049%=      5-min Rain = 0
KMNS 211035Z 18009KT 05/M04 A2979 RMK A01 T00541044  RH  050%=      5-min Rain = 0
KMNS 211040Z 18009KT 05/M04 A2979 RMK A01 T00541042  RH  050%=      5-min Rain = 0
KMNS 211045Z 19009KT 06/M04 A2979 RMK A01 T00551041  RH  050%=      5-min Rain = 0
KMNS 211050Z 19008KT 06/M04 A2979 RMK A01 T00551041  RH  051%=      5-min Rain = 0
KMNS 211055Z 19008KT 05/M04 A2979 RMK A01 T00541040  RH  051%=      5-min Rain = 0
KMNS 211100Z 19007KT 05/M04 A2979 RMK A01 T00531040  RH  051%=      5-min Rain = 0
KMNS 211105Z 19007KT 05/M04 A2979 RMK A01 T00531039  RH  052%=      5-min Rain = 0
KMNS 211110Z 18007KT 05/M04 A2979 RMK A01 T00541038  RH  052%=      5-min Rain = 0
KMNS 211115Z 17007KT 05/M04 A2979 RMK A01 T00541037  RH  052%=      5-min Rain = 0
KMNS 211120Z 16007KT 06/M04 A2978 RMK A01 T00551037  RH  052%=      5-min Rain = 0
KMNS 211125Z 16007KT 05/M04 A2978 RMK A01 T00541037  RH  052%=      5-min Rain = 0
KMNS 211130Z 16007KT 05/M04 A2978 RMK A01 T00531036  RH  053%=      5-min Rain = 0
KMNS 211135Z 16006KT 05/M04 A2978 RMK A01 T00521036  RH  053%=      5-min Rain = 0
KMNS 211140Z 16006KT 05/M04 A2978 RMK A01 T00511036  RH  054%=      5-min Rain = 0
KMNS 211145Z 16005KT 05/M04 A2978 RMK A01 T00491036  RH  054%=      5-min Rain = 0
KMNS 211150Z 16005KT 05/M04 A2978 RMK A01 T00491037  RH  054%=      5-min Rain = 0
KMNS 211155Z 18005KT 05/M04 A2978 RMK A01 T00471037  RH  054%=      5-min Rain = 0
KMNS 211200Z 18005KT 05/M04 A2978 RMK A01 T00451038  RH  055%=      5-min Rain = 0
KMNS 211205Z 17004KT 04/M04 A2978 RMK A01 T00441037  RH  056%=      5-min Rain = 0
KMNS 211210Z 17004KT 05/M04 A2978 RMK A01 T00451037  RH  056%=      5-min Rain = 0
KMNS 211215Z 15003KT 04/M04 A2978 RMK A01 T00441037  RH  056%=      5-min Rain = 0
KMNS 211220Z 15003KT 04/M04 A2978 RMK A01 T00431038  RH  056%=      5-min Rain = 0
KMNS 211225Z 13001KT 04/M04 A2978 RMK A01 T00411040  RH  056%=      5-min Rain = 0
KMNS 211230Z 09002KT 04/M05 A2978 RMK A01 T00371046  RH  055%=      5-min Rain = 0
KMNS 211235Z 11001KT 03/M05 A2978 RMK A01 T00321051  RH  055%=      5-min Rain = 0
KMNS 211240Z 11003KT 03/M05 A2979 RMK A01 T00291052  RH  055%=      5-min Rain = 0
KMNS 211245Z 10001KT 03/M05 A2979 RMK A01 T00271053  RH  056%=      5-min Rain = 0
KMNS 211250Z 09003KT 02/M06 A2979 RMK A01 T00231055  RH  057%=      5-min Rain = 0
KMNS 211255Z 08002KT 02/M06 A2979 RMK A01 T00201060  RH  055%=      5-min Rain = 0
KMNS 211300Z 08002KT 02/M06 A2979 RMK A01 T00191058  RH  057%=      5-min Rain = 0
KMNS 211305Z 08003KT 02/M05 A2979 RMK A01 T00231053  RH  057%=      5-min Rain = 0
KMNS 211310Z 10003KT 03/M05 A2979 RMK A01 T00261052  RH  057%=      5-min Rain = 0
KMNS 211315Z 10004KT 03/M05 A2979 RMK A01 T00261052  RH  057%=      5-min Rain = 0
KMNS 211320Z 10005KT 02/M05 A2979 RMK A01 T00241050  RH  058%=      5-min Rain = 0
KMNS 211325Z 12006KT 03/M05 A2979 RMK A01 T00261045  RH  059%=      5-min Rain = 0
KMNS 211330Z 13005KT 03/M05 A2979 RMK A01 T00281045  RH  059%=      5-min Rain = 0
KMNS 211335Z 14005KT 03/M05 A298 RMK A01 T00291045  RH  058%=      5-min Rain = 0
KMNS 211340Z 14005KT 03/M05 A298 RMK A01 T00301045  RH  058%=      5-min Rain = 0
KMNS 211345Z 13005KT 03/M05 A298 RMK A01 T00291046  RH  058%=      5-min Rain = 0
KMNS 211350Z 13004KT 03/M05 A298 RMK A01 T00281047  RH  058%=      5-min Rain = 0
KMNS 211355Z 13004KT 03/M05 A298 RMK A01 T00261048  RH  058%=      5-min Rain = 0
KMNS 211400Z 13004KT 03/M05 A298 RMK A01 T00251049  RH  058%=      5-min Rain = 0
KMNS 211405Z 13004KT 03/M05 A298 RMK A01 T00261049  RH  058%=      5-min Rain = 0
KMNS 211410Z 13003KT 03/M05 A298 RMK A01 T00261049  RH  058%=      5-min Rain = 0
KMNS 211415Z 13002KT 03/M05 A2981 RMK A01 T00271048  RH  058%=      5-min Rain = 0
KMNS 211420Z 12001KT 03/M05 A2981 RMK A01 T00281048  RH  057%=      5-min Rain = 0
KMNS 211425Z 12002KT 03/M05 A2981 RMK A01 T00301047  RH  057%=      5-min Rain = 0
KMNS 211430Z 14002KT 03/M05 A2981 RMK A01 T00321046  RH  057%=      5-min Rain = 0
KMNS 211435Z 14003KT 04/M05 A2981 RMK A01 T00361046  RH  056%=      5-min Rain = 0
KMNS 211440Z 15004KT 04/M05 A2982 RMK A01 T00391045  RH  054%=      5-min Rain = 0
KMNS 211445Z 14004KT 04/M05 A2982 RMK A01 T00421045  RH  053%=      5-min Rain = 0
KMNS 211450Z 14005KT 04/M05 A2982 RMK A01 T00441045  RH  053%=      5-min Rain = 0
KMNS 211455Z 13005KT 05/M05 A2981 RMK A01 T00471045  RH  052%=      5-min Rain = 0
KMNS 211500Z 13005KT 05/M04 A2981 RMK A01 T00481044  RH  051%=      5-min Rain = 0
KMNS 211505Z 13003KT 05/M04 A2982 RMK A01 T00491044  RH  051%=      5-min Rain = 0
KMNS 211510Z 16002KT 05/M04 A2982 RMK A01 T00511044  RH  051%=      5-min Rain = 0
KMNS 211515Z 15004KT 05/M04 A2982 RMK A01 T00531044  RH  050%=      5-min Rain = 0
KMNS 211520Z 15006KT 06/M04 A2982 RMK A01 T00591042  RH  048%=      5-min Rain = 0
KMNS 211525Z 16005KT 07/M04 A2982 RMK A01 T00671042  RH  046%=      5-min Rain = 0
KMNS 211530Z 17007KT 07/M04 A2982 RMK A01 T00701042  RH  045%=      5-min Rain = 0
KMNS 211535Z 17007G12KT 08/M04 A2982 RMK A01 T00751040  RH  044%=      5-min Rain = 0
KMNS 211540Z 17007KT 08/M04 A2982 RMK A01 T00781041  RH  043%=      5-min Rain = 0
KMNS 211545Z 17010G15KT 08/M04 A2982 RMK A01 T00841040  RH  041%=      5-min Rain = 0
KMNS 211550Z 18010KT 09/M04 A2982 RMK A01 T00861041  RH  041%=      5-min Rain = 0
KMNS 211555Z 18010KT 08/M04 A2982 RMK A01 T00841041  RH  041%=      5-min Rain = 0
KMNS 211600Z 19013KT 08/M04 A2982 RMK A01 T00811041  RH  042%=      5-min Rain = 0
KMNS 211605Z 17011KT 08/M04 A2982 RMK A01 T00821040  RH  042%=      5-min Rain = 0
KMNS 211610Z 19011KT 09/M04 A2982 RMK A01 T00911037  RH  040%=      5-min Rain = 0
KMNS 211615Z 19011KT 10/M04 A2982 RMK A01 T01001037  RH  038%=      5-min Rain = 0
KMNS 211620Z 20012KT 10/M04 A2982 RMK A01 T01031036  RH  038%=      5-min Rain = 0
KMNS 211625Z 18012KT 10/M04 A2981 RMK A01 T01041036  RH  037%=      5-min Rain = 0
KMNS 211630Z 18011KT 11/M03 A2982 RMK A01 T01101034  RH  037%=      5-min Rain = 0
KMNS 211635Z 19011KT 11/M04 A2982 RMK A01 T01091036  RH  036%=      5-min Rain = 0
KMNS 211640Z 19011KT 10/M04 A2982 RMK A01 T01021037  RH  038%=      5-min Rain = 0
KMNS 211645Z 18011G16KT 11/M03 A2982 RMK A01 T01101034  RH  036%=      5-min Rain = 0
KMNS 211650Z 17012KT 12/M04 A2982 RMK A01 T01171035  RH  035%=      5-min Rain = 0
KMNS 211655Z 17013G18KT 12/M04 A2981 RMK A01 T01151037  RH  035%=      5-min Rain = 0
KMNS 211700Z 17012KT 12/M04 A2981 RMK A01 T01181036  RH  034%=      5-min Rain = 0
KMNS 211705Z 17012KT 12/M04 A2981 RMK A01 T01181037  RH  034%=      5-min Rain = 0
KMNS 211710Z 19012KT 12/M04 A2981 RMK A01 T01221039  RH  033%=      5-min Rain = 0
KMNS 211715Z 19011KT 12/M04 A2981 RMK A01 T01241039  RH  032%=      5-min Rain = 0
KMNS 211720Z 19011G18KT 13/M04 A2981 RMK A01 T01321038  RH  031%=      5-min Rain = 0
KMNS 211725Z 18011KT 13/M04 A2981 RMK A01 T01301039  RH  031%=      5-min Rain = 0
KMNS 211730Z 18011G16KT 14/M04 A298 RMK A01 T01361041  RH  029%=      5-min Rain = 0
KMNS 211735Z 18011G16KT 14/M04 A298 RMK A01 T01371042  RH  029%=      5-min Rain = 0
KMNS 211740Z 19011G16KT 14/M04 A298 RMK A01 T01401044  RH  028%=      5-min Rain = 0
KMNS 211745Z 20012KT 14/M05 A298 RMK A01 T01421045  RH  027%=      5-min Rain = 0
KMNS 211750Z 18012KT 15/M04 A2981 RMK A01 T01451042  RH  027%=      5-min Rain = 0
KMNS 211755Z 19013G19KT 15/M05 A298 RMK A01 T01461048  RH  026%=      5-min Rain = 0
KMNS 211800Z 20012KT 15/M05 A298 RMK A01 T01481048  RH  026%=      5-min Rain = 0
KMNS 211805Z 19010KT 15/M05 A2979 RMK A01 T01511049  RH  025%=      5-min Rain = 0
KMNS 211810Z 19010G17KT 15/M05 A2979 RMK A01 T01531052  RH  024%=      5-min Rain = 0
KMNS 211815Z 18010G16KT 15/M05 A2979 RMK A01 T01531050  RH  024%=      5-min Rain = 0
KMNS 211820Z 18011G17KT 16/M05 A2979 RMK A01 T01571050  RH  024%=      5-min Rain = 0
KMNS 211825Z 19011G16KT 16/M06 A2979 RMK A01 T01581055  RH  023%=      5-min Rain = 0
KMNS 211830Z 19009G14KT 16/M05 A2978 RMK A01 T01601053  RH  023%=      5-min Rain = 0
KMNS 211835Z 17008G13KT 16/M05 A2978 RMK A01 T01571053  RH  023%=      5-min Rain = 0
KMNS 211840Z 17011G16KT 16/M06 A2978 RMK A01 T01641055  RH  022%=      5-min Rain = 0
KMNS 211845Z 19011G16KT 17/M06 A2978 RMK A01 T01651061  RH  021%=      5-min Rain = 0
KMNS 211850Z 20011KT 17/M06 A2978 RMK A01 T01651061  RH  021%=      5-min Rain = 0
KMNS 211855Z 19009G15KT 16/M06 A2978 RMK A01 T01631059  RH  021%=      5-min Rain = 0
KMNS 211900Z 17011G18KT 16/M06 A2977 RMK A01 T01641060  RH  021%=      5-min Rain = 0
KMNS 211905Z 15010G15KT 17/M06 A2977 RMK A01 T01651058  RH  021%=      5-min Rain = 0
KMNS 211910Z 18010G16KT 17/M06 A2976 RMK A01 T01691059  RH  020%=      5-min Rain = 0
KMNS 211915Z 20009G18KT 17/M07 A2976 RMK A01 T01711067  RH  019%=      5-min Rain = 0
KMNS 211920Z 20010G17KT 17/M07 A2976 RMK A01 T01741066  RH  019%=      5-min Rain = 0
KMNS 211925Z 20010G15KT 17/M07 A2976 RMK A01 T01721069  RH  019%=      5-min Rain = 0
KMNS 211930Z 18013KT 18/M07 A2976 RMK A01 T01751067  RH  019%=      5-min Rain = 0
KMNS 211935Z 18009G14KT 18/M07 A2975 RMK A01 T01751067  RH  019%=      5-min Rain = 0
KMNS 211940Z 18012G17KT 18/M07 A2975 RMK A01 T01761070  RH  018%=      5-min Rain = 0
KMNS 211945Z 17010KT 18/M07 A2975 RMK A01 T01761065  RH  019%=      5-min Rain = 0
KMNS 211950Z 17009G20KT 18/M07 A2974 RMK A01 T01791066  RH  018%=      5-min Rain = 0
KMNS 211955Z 18014G19KT 18/M07 A2974 RMK A01 T01781071  RH  018%=      5-min Rain = 0
KMNS 212000Z 19010KT 18/M07 A2974 RMK A01 T01821069  RH  017%=      5-min Rain = 0
KMNS 212005Z 18010G15KT 18/M07 A2973 RMK A01 T01821072  RH  017%=      5-min Rain = 0
KMNS 212010Z 19017G22KT 19/M07 A2973 RMK A01 T01871073  RH  016%=      5-min Rain = 0
KMNS 212015Z 18015G21KT 18/M07 A2973 RMK A01 T01841074  RH  017%=      5-min Rain = 0
KMNS 212020Z 18014G23KT 18/M08 A2973 RMK A01 T01831077  RH  016%=      5-min Rain = 0
KMNS 212025Z 19012G19KT 18/M08 A2973 RMK A01 T01841082  RH  016%=      5-min Rain = 0
KMNS 212030Z 19013G19KT 18/M08 A2972 RMK A01 T01831079  RH  016%=      5-min Rain = 0
KMNS 212035Z 21014G19KT 19/M08 A2972 RMK A01 T01911081  RH  015%=      5-min Rain = 0
KMNS 212040Z 20014G23KT 19/M08 A2972 RMK A01 T01871081  RH  015%=      5-min Rain = 0
KMNS 212045Z 20014G19KT 19/M08 A2972 RMK A01 T01901081  RH  015%=      5-min Rain = 0
KMNS 212050Z 19012G17KT 19/M08 A2972 RMK A01 T01891078  RH  016%=      5-min Rain = 0
KMNS 212055Z 17011G16KT 19/M08 A2971 RMK A01 T01901078  RH  015%=      5-min Rain = 0
KMNS 212100Z 19012G19KT 19/M08 A2971 RMK A01 T01941080  RH  015%=      5-min Rain = 0
KMNS 212105Z 20015G20KT 19/M09 A2971 RMK A01 T01921094  RH  014%=      5-min Rain = 0
KMNS 212110Z 20015G21KT 19/M10 A2971 RMK A01 T01931096  RH  013%=      5-min Rain = 0
KMNS 212115Z 21016G22KT 20/M09 A2971 RMK A01 T01961094  RH  013%=      5-min Rain = 0
KMNS 212120Z 21014G20KT 19/M10 A2971 RMK A01 T01901095  RH  014%=      5-min Rain = 0
KMNS 212125Z 21016KT 18/M10 A2971 RMK A01 T01821095  RH  014%=      5-min Rain = 0
KMNS 212130Z 21017G24KT 19/M09 A297 RMK A01 T01911093  RH  014%=      5-min Rain = 0
KMNS 212135Z 20017G22KT 20/M10 A297 RMK A01 T01971096  RH  013%=      5-min Rain = 0
KMNS 212140Z 21015G24KT 20/M10 A297 RMK A01 T01951095  RH  013%=      5-min Rain = 0
KMNS 212145Z 20015G21KT 20/M09 A297 RMK A01 T01971092  RH  013%=      5-min Rain = 0
KMNS 212150Z 18018G27KT 19/M09 A297 RMK A01 T01941087  RH  014%=      5-min Rain = 0
KMNS 212155Z 19015G23KT 20/M09 A297 RMK A01 T01971086  RH  014%=      5-min Rain = 0
KMNS 212200Z 19015G21KT 20/M09 A297 RMK A01 T01951088  RH  014%=      5-min Rain = 0
KMNS 212205Z 18015G25KT 19/M09 A297 RMK A01 T01921088  RH  014%=      5-min Rain = 0
KMNS 212210Z 17013G20KT 19/M09 A297 RMK A01 T01931086  RH  014%=      5-min Rain = 0
KMNS 212215Z 19017G22KT 18/M09 A297 RMK A01 T01821088  RH  015%=      5-min Rain = 0
KMNS 212220Z 18016G21KT 19/M09 A297 RMK A01 T01881085  RH  015%=      5-min Rain = 0
KMNS 212225Z 19013KT 18/M08 A297 RMK A01 T01811084  RH  016%=      5-min Rain = 0
KMNS 212230Z 19014G21KT 19/M09 A297 RMK A01 T01921086  RH  014%=      5-min Rain = 0
KMNS 212235Z 18016G21KT 19/M09 A297 RMK A01 T01931089  RH  014%=      5-min Rain = 0
KMNS 212240Z 18017G22KT 19/M09 A297 RMK A01 T01911089  RH  014%=      5-min Rain = 0
KMNS 212245Z 19011G17KT 20/M09 A297 RMK A01 T01951087  RH  014%=      5-min Rain = 0
KMNS 212250Z 16013G20KT 19/M08 A297 RMK A01 T01941075  RH  016%=      5-min Rain = 0
KMNS 212255Z 15014G22KT 19/M05 A297 RMK A01 T01861050  RH  020%=      5-min Rain = 0
KMNS 212300Z 14014G19KT 18/M05 A297 RMK A01 T01821048  RH  021%=      5-min Rain = 0
KMNS 212305Z 17016G22KT 19/M05 A297 RMK A01 T01851051  RH  020%=      5-min Rain = 0
KMNS 212310Z 16015G23KT 18/M05 A297 RMK A01 T01801053  RH  020%=      5-min Rain = 0
KMNS 212315Z 15014G20KT 18/M05 A2971 RMK A01 T01751052  RH  021%=      5-min Rain = 0
KMNS 212320Z 15019G24KT 17/M05 A2971 RMK A01 T01701048  RH  022%=      5-min Rain = 0
KMNS 212325Z 15018G23KT 17/M05 A2971 RMK A01 T01701047  RH  022%=      5-min Rain = 0
KMNS 212330Z 14016G22KT 17/M05 A2971 RMK A01 T01701046  RH  022%=      5-min Rain = 0
KMNS 212335Z 14016G23KT 17/M05 A2971 RMK A01 T01711046  RH  022%=      5-min Rain = 0
KMNS 212340Z 14018KT 17/M05 A2971 RMK A01 T01691047  RH  022%=      5-min Rain = 0
KMNS 212345Z 14018G23KT 17/M04 A2971 RMK A01 T01681040  RH  024%=      5-min Rain = 0
KMNS 212350Z 15016G23KT 16/M03 A2972 RMK A01 T01621028  RH  027%=      5-min Rain = 0
KMNS 212355Z 14018G27KT 16/M03 A2972 RMK A01 T01591025  RH  028%=      5-min Rain = 0
KMNS 220000Z 14021G28KT 15/M02 A2972 RMK A01 T01541023  RH  030%=      5-min Rain = 0
KMNS 220005Z 14020G25KT 15/M02 A2972 RMK A01 T01501021  RH  031%=      5-min Rain = 0
KMNS 220010Z 14020G26KT 15/M02 A2972 RMK A01 T01481020  RH  031%=      5-min Rain = 0
KMNS 220015Z 14019G26KT 15/M02 A2973 RMK A01 T01461020  RH  032%=      5-min Rain = 0
KMNS 220020Z 14019G24KT 14/M02 A2973 RMK A01 T01431020  RH  033%=      5-min Rain = 0
KMNS 220025Z 14017KT 14/M02 A2973 RMK A01 T01411020  RH  033%=      5-min Rain = 0
KMNS 220030Z 14015G20KT 14/M02 A2974 RMK A01 T01391019  RH  034%=      5-min Rain = 0
KMNS 220035Z 14017G24KT 14/M02 A2974 RMK A01 T01381018  RH  034%=      5-min Rain = 0
KMNS 220040Z 14017G24KT 14/M02 A2974 RMK A01 T01361017  RH  035%=      5-min Rain = 0
KMNS 220045Z 14017G23KT 14/M02 A2974 RMK A01 T01351015  RH  036%=      5-min Rain = 0
KMNS 220050Z 14016G23KT 13/M02 A2974 RMK A01 T01321015  RH  037%=      5-min Rain = 0
KMNS 220055Z 14015G20KT 13/M01 A2975 RMK A01 T01301014  RH  037%=      5-min Rain = 0
KMNS 220100Z 14014G21KT 13/M02 A2975 RMK A01 T01281015  RH  037%=      5-min Rain = 0
KMNS 220105Z 14013G18KT 13/M02 A2975 RMK A01 T01261015  RH  038%=      5-min Rain = 0
KMNS 220110Z 14014KT 13/M02 A2976 RMK A01 T01251015  RH  038%=      5-min Rain = 0
KMNS 220115Z 14015KT 12/M01 A2976 RMK A01 T01231014  RH  039%=      5-min Rain = 0
KMNS 220120Z 14014KT 12/M01 A2976 RMK A01 T01221014  RH  039%=      5-min Rain = 0
KMNS 220125Z 14014KT 12/M01 A2976 RMK A01 T01201014  RH  040%=      5-min Rain = 0
KMNS 220130Z 14014KT 12/M01 A2977 RMK A01 T01191014  RH  040%=      5-min Rain = 0
KMNS 220135Z 14012G17KT 12/M01 A2977 RMK A01 T01171014  RH  041%=      5-min Rain = 0
KMNS 220140Z 14012KT 12/M01 A2977 RMK A01 T01151014  RH  041%=      5-min Rain = 0
KMNS 220145Z 13012G18KT 11/M02 A2977 RMK A01 T01141015  RH  041%=      5-min Rain = 0
KMNS 220150Z 13010KT 11/M02 A2977 RMK A01 T01101015  RH  042%=      5-min Rain = 0
KMNS 220155Z 13012G18KT 11/M01 A2978 RMK A01 T01071014  RH  043%=      5-min Rain = 0
KMNS 220200Z 13015KT 11/M01 A2978 RMK A01 T01091010  RH  044%=      5-min Rain = 0
KMNS 220205Z 13013G18KT 11/M01 A2978 RMK A01 T01071007  RH  045%=      5-min Rain = 0
KMNS 220210Z 13011KT 10/M01 A2978 RMK A01 T01031007  RH  047%=      5-min Rain = 0
KMNS 220215Z 13013KT 10/M01 A2979 RMK A01 T01021006  RH  047%=      5-min Rain = 0
KMNS 220220Z 13012G18KT 10/M01 A2979 RMK A01 T01011006  RH  048%=      5-min Rain = 0
KMNS 220225Z 14013G19KT 10/M01 A2979 RMK A01 T01001005  RH  049%=      5-min Rain = 0
KMNS 220230Z 14015G21KT 10/M00 A298 RMK A01 T01001004  RH  049%=      5-min Rain = 0
KMNS 220235Z 13015G21KT 10/M00 A298 RMK A01 T00991004  RH  049%=      5-min Rain = 0
KMNS 220240Z 13013G18KT 10/M00 A298 RMK A01 T00971004  RH  050%=      5-min Rain = 0
KMNS 220245Z 13014G20KT 10/M01 A298 RMK A01 T00951005  RH  050%=      5-min Rain = 0
KMNS 220250Z 13013KT 09/M01 A298 RMK A01 T00941006  RH  050%=      5-min Rain = 0
KMNS 220255Z 12011G16KT 09/M01 A298 RMK A01 T00891007  RH  051%=      5-min Rain = 0
KMNS 220300Z 12011G16KT 09/M01 A2981 RMK A01 T00861007  RH  052%=      5-min Rain = 0
KMNS 220305Z 13014KT 09/M01 A298 RMK A01 T00861008  RH  052%=      5-min Rain = 0
KMNS 220310Z 13014G21KT 09/M01 A2981 RMK A01 T00861010  RH  051%=      5-min Rain = 0
KMNS 220315Z 13013KT 08/M01 A2981 RMK A01 T00841012  RH  051%=      5-min Rain = 0
KMNS 220320Z 13012KT 08/M01 A2981 RMK A01 T00811014  RH  051%=      5-min Rain = 0
KMNS 220325Z 13012KT 08/M02 A2981 RMK A01 T00781015  RH  052%=      5-min Rain = 0
KMNS 220330Z 13013KT 08/M02 A2981 RMK A01 T00781016  RH  052%=      5-min Rain = 0
KMNS 220335Z 13012G17KT 08/M02 A2981 RMK A01 T00761017  RH  052%=      5-min Rain = 0
KMNS 220340Z 13012G17KT 07/M02 A2981 RMK A01 T00731018  RH  053%=      5-min Rain = 0
KMNS 220345Z 13011KT 07/M02 A2981 RMK A01 T00721019  RH  053%=      5-min Rain = 0
KMNS 220350Z 12011G17KT 07/M02 A2982 RMK A01 T00691020  RH  053%=      5-min Rain = 0
KMNS 220355Z 12011KT 07/M02 A2982 RMK A01 T00671021  RH  054%=      5-min Rain = 0
KMNS 220400Z 12010G15KT 07/M02 A2982 RMK A01 T00651022  RH  054%=      5-min Rain = 0
KMNS 220405Z 12012KT 06/M02 A2982 RMK A01 T00641022  RH  055%=      5-min Rain = 0
KMNS 220410Z 12011KT 06/M02 A2983 RMK A01 T00641022  RH  054%=      5-min Rain = 0
KMNS 220415Z 12011KT 06/M02 A2983 RMK A01 T00621023  RH  055%=      5-min Rain = 0
KMNS 220420Z 12010KT 06/M02 A2983 RMK A01 T00601024  RH  055%=      5-min Rain = 0
KMNS 220425Z 11011KT 06/M02 A2983 RMK A01 T00591024  RH  055%=      5-min Rain = 0
KMNS 220430Z 12010KT 06/M03 A2983 RMK A01 T00581025  RH  056%=      5-min Rain = 0
KMNS 220435Z 12011KT 06/M03 A2983 RMK A01 T00571025  RH  056%=      5-min Rain = 0
KMNS 220440Z 12010KT 06/M03 A2983 RMK A01 T00561026  RH  056%=      5-min Rain = 0
KMNS 220445Z 12011KT 06/M03 A2983 RMK A01 T00551026  RH  056%=      5-min Rain = 0
KMNS 220450Z 12011KT 06/M03 A2983 RMK A01 T00561026  RH  056%=      5-min Rain = 0
KMNS 220455Z 12010KT 06/M03 A2984 RMK A01 T00561026  RH  056%=      5-min Rain = 0
KMNS 220500Z 12010KT 06/M03 A2984 RMK A01 T00551026  RH  056%=      5-min Rain = 0
KMNS 220505Z 12011KT 06/M03 A2984 RMK A01 T00551026  RH  056%=      5-min Rain = 0
KMNS 220510Z 12011KT 05/M03 A2984 RMK A01 T00541026  RH  057%=      5-min Rain = 0
KMNS 220515Z 12010KT 05/M03 A2984 RMK A01 T00531026  RH  057%=      5-min Rain = 0
KMNS 220520Z 12010G15KT 05/M03 A2984 RMK A01 T00521027  RH  057%=      5-min Rain = 0
KMNS 220525Z 12011KT 05/M03 A2984 RMK A01 T00501027  RH  058%=      5-min Rain = 0
KMNS 220530Z 12009KT 05/M03 A2984 RMK A01 T00471028  RH  059%=      5-min Rain = 0
KMNS 220535Z 12010KT 04/M03 A2984 RMK A01 T00441028  RH  060%=      5-min Rain = 0
KMNS 220540Z 12009KT 04/M03 A2984 RMK A01 T00431028  RH  060%=      5-min Rain = 0
KMNS 220545Z 12009KT 04/M03 A2984 RMK A01 T00411028  RH  061%=      5-min Rain = 0
KMNS 220550Z 12010KT 04/M03 A2984 RMK A01 T00391029  RH  062%=      5-min Rain = 0
KMNS 220555Z 12010KT 04/M03 A2984 RMK A01 T00381028  RH  062%=      5-min Rain = 0

Page generated in 0.0087 seconds.